Time;durP1;ratioP1;P1;durP2;ratioP2;P2;SDS_P1;SDS_P2;PMS_P1;PMS_P2;Temp;Humidity;BMP_temperature;BMP_pressure;BME280_temperature;BME280_humidity;BME280_pressure;Samples;Min_cycle;Max_cycle;Signal;HPM_P1;HPM_P2
2022/08/27 00:01:26;;;;;;;7.40;6.60;;;;;;;19.39;81.66;97226.03;6205597;28;20236;-46
2022/08/27 00:04:29;;;;;;;7.73;6.07;;;;;;;19.35;81.86;97224.78;6205807;28;20706;-45
2022/08/27 00:07:31;;;;;;;8.30;6.90;;;;;;;19.28;82.32;97229.22;6204818;28;20298;-45
2022/08/27 00:10:34;;;;;;;7.50;6.80;;;;;;;19.26;82.16;97238.47;6205123;28;20580;-45
2022/08/27 00:13:37;;;;;;;11.27;7.20;;;;;;;19.27;82.32;97234.75;6205212;28;20232;-47
2022/08/27 00:16:39;;;;;;;10.53;8.47;;;;;;;19.26;82.44;97230.44;6204844;28;20240;-45
2022/08/27 00:19:43;;;;;;;9.00;8.10;;;;;;;19.20;82.68;97220.47;6200973;28;20225;-46
2022/08/27 00:22:45;;;;;;;12.53;10.40;;;;;;;19.17;82.64;97222.50;6195624;28;20228;-44
2022/08/27 00:25:48;;;;;;;11.50;10.30;;;;;;;19.13;82.85;97231.09;6204581;28;20236;-46
2022/08/27 00:28:50;;;;;;;11.50;10.30;;;;;;;19.12;82.89;97232.94;6205250;28;20239;-47
2022/08/27 00:31:53;;;;;;;11.93;10.80;;;;;;;19.07;83.22;97240.69;6204377;28;20646;-45
2022/08/27 00:34:55;;;;;;;13.10;10.03;;;;;;;19.05;83.50;97234.72;6203994;28;20529;-46
2022/08/27 00:37:57;;;;;;;12.97;10.97;;;;;;;19.03;83.35;97225.22;6175599;28;20229;-45
2022/08/27 00:41:00;;;;;;;11.83;10.43;;;;;;;18.99;83.53;97230.09;6201322;28;20255;-45
2022/08/27 00:44:02;;;;;;;14.10;12.47;;;;;;;18.93;83.70;97233.53;6206108;28;20608;-46
2022/08/27 00:47:11;;;;;;;14.03;12.40;;;;;;;18.90;83.55;97227.72;6203596;28;20233;-45
2022/08/27 00:50:18;;;;;;;13.80;11.87;;;;;;;18.85;83.33;97227.47;6195138;28;20726;-47
2022/08/27 00:53:24;;;;;;;11.93;10.63;;;;;;;18.82;83.12;97225.16;6191331;28;20711;-45
2022/08/27 00:56:30;;;;;;;11.67;9.03;;;;;;;18.81;83.05;97227.00;6204059;28;20593;-45
2022/08/27 00:59:32;;;;;;;11.30;9.50;;;;;;;18.79;82.85;97235.19;6204077;28;20346;-45
2022/08/27 01:02:35;;;;;;;10.47;7.97;;;;;;;18.73;83.05;97227.94;6198219;28;20248;-44
2022/08/27 01:05:38;;;;;;;13.83;10.47;;;;;;;18.70;82.97;97228.28;6203795;28;20240;-45
2022/08/27 01:08:50;;;;;;;10.57;8.40;;;;;;;18.69;82.49;97223.94;6203420;28;20328;-46
2022/08/27 01:11:54;;;;;;;8.33;7.53;;;;;;;18.68;83.06;97224.13;6204188;28;20236;-45
2022/08/27 01:14:56;;;;;;;10.27;7.77;;;;;;;18.66;83.07;97223.50;6204198;28;20734;-45
2022/08/27 01:18:01;;;;;;;14.17;9.90;;;;;;;18.65;83.13;97227.19;6204805;28;20847;-46
2022/08/27 01:21:19;;;;;;;12.63;9.20;;;;;;;18.59;83.41;97230.59;6195730;28;20221;-45
2022/08/27 01:24:34;;;;;;;13.33;9.90;;;;;;;18.53;83.56;97226.78;6204098;28;20241;-44
2022/08/27 01:27:37;;;;;;;11.47;8.73;;;;;;;18.49;83.82;97233.50;6204493;28;20608;-45
2022/08/27 01:30:40;;;;;;;9.03;8.03;;;;;;;18.47;83.71;97230.19;6203440;28;20271;-47
2022/08/27 01:33:57;;;;;;;13.57;9.63;;;;;;;18.38;83.93;97233.97;6203917;28;20229;-45
2022/08/27 01:36:59;;;;;;;11.77;10.57;;;;;;;18.29;84.46;97227.03;6204626;28;20236;-45
2022/08/27 01:40:01;;;;;;;24.63;17.90;;;;;;;18.25;84.31;97231.94;6204209;28;20270;-46
2022/08/27 01:43:05;;;;;;;13.90;12.07;;;;;;;18.18;84.88;97230.16;6182218;28;20328;-47
2022/08/27 01:46:07;;;;;;;10.93;9.80;;;;;;;18.13;84.87;97232.56;6198792;28;20749;-45
2022/08/27 01:49:09;;;;;;;9.83;8.63;;;;;;;18.01;85.20;97234.81;6204589;28;20241;-45
2022/08/27 01:52:15;;;;;;;9.70;8.20;;;;;;;18.02;85.34;97245.34;6192197;28;20613;-44
2022/08/27 01:55:21;;;;;;;13.17;7.10;;;;;;;17.99;85.21;97243.00;6203663;28;20229;-45
2022/08/27 01:58:29;;;;;;;9.60;6.93;;;;;;;17.95;85.52;97236.38;6207337;28;20236;-45
2022/08/27 02:01:43;;;;;;;7.33;6.43;;;;;;;17.93;85.44;97238.41;6207706;28;20711;-45
2022/08/27 02:04:46;;;;;;;8.20;7.40;;;;;;;17.91;85.39;97239.59;6208505;28;20236;-44
2022/08/27 02:07:48;;;;;;;7.90;6.60;;;;;;;17.90;85.49;97243.25;6208098;28;20758;-44
2022/08/27 02:10:50;;;;;;;7.43;5.83;;;;;;;17.86;85.73;97244.66;6208446;28;20233;-45
2022/08/27 02:13:53;;;;;;;5.93;5.33;;;;;;;17.80;85.84;97238.16;6208027;28;20712;-45
2022/08/27 02:16:55;;;;;;;7.60;6.47;;;;;;;17.80;85.90;97237.34;6205601;28;20714;-44
2022/08/27 02:19:59;;;;;;;7.13;6.33;;;;;;;17.77;85.90;97246.53;6200115;28;20646;-45
2022/08/27 02:23:03;;;;;;;29.53;18.37;;;;;;;17.74;85.96;97246.91;6194006;28;20235;-46
2022/08/27 02:26:05;;;;;;;8.20;7.07;;;;;;;17.69;86.50;97250.09;6212240;28;20224;-45
2022/08/27 02:29:08;;;;;;;9.90;7.93;;;;;;;17.68;86.38;97248.44;6210579;28;20254;-44
2022/08/27 02:32:10;;;;;;;23.07;15.43;;;;;;;17.66;86.47;97246.97;6207952;28;20232;-45
2022/08/27 02:35:37;;;;;;;13.17;10.30;;;;;;;17.63;86.67;97249.97;6207590;28;20721;-46
2022/08/27 02:38:41;;;;;;;7.40;6.63;;;;;;;17.57;87.00;97239.97;6206552;28;20327;-44
2022/08/27 02:41:43;;;;;;;6.57;5.80;;;;;;;17.53;86.92;97236.84;6207222;28;20262;-46
2022/08/27 02:44:46;;;;;;;5.27;4.80;;;;;;;17.45;87.17;97238.75;6206903;28;20243;-45
2022/08/27 02:47:48;;;;;;;8.40;6.37;;;;;;;17.44;87.40;97237.06;6207112;28;20454;-44
2022/08/27 02:50:50;;;;;;;7.47;6.30;;;;;;;17.42;87.30;97241.75;6205614;28;20232;-45
2022/08/27 02:53:53;;;;;;;7.83;5.37;;;;;;;17.34;87.46;97235.47;6207030;28;20240;-45
2022/08/27 02:56:56;;;;;;;5.90;5.30;;;;;;;17.31;87.60;97235.81;6207713;28;20243;-44
2022/08/27 02:59:58;;;;;;;6.13;5.40;;;;;;;17.28;87.73;97236.16;6206375;28;20235;-44
2022/08/27 03:03:01;;;;;;;6.90;6.20;;;;;;;17.25;87.58;97233.88;6206609;28;20228;-45
2022/08/27 03:06:03;;;;;;;5.97;5.37;;;;;;;17.24;87.93;97234.88;6207217;28;20318;-45
2022/08/27 03:09:09;;;;;;;5.93;5.43;;;;;;;17.24;87.96;97239.38;6204561;28;20249;-44
2022/08/27 03:12:11;;;;;;;10.23;6.63;;;;;;;17.21;88.25;97237.88;6206654;28;20704;-46
2022/08/27 03:15:16;;;;;;;6.93;5.70;;;;;;;17.15;88.20;97241.25;6205729;28;20224;-45
2022/08/27 03:18:20;;;;;;;9.33;5.97;;;;;;;17.10;88.48;97234.75;6206092;28;20339;-44
2022/08/27 03:21:24;;;;;;;6.63;5.57;;;;;;;17.06;88.95;97236.13;6196608;28;20248;-44
2022/08/27 03:24:26;;;;;;;8.87;6.87;;;;;;;17.04;89.03;97236.31;6206498;28;20308;-45
2022/08/27 03:27:30;;;;;;;6.27;5.73;;;;;;;17.03;89.09;97237.31;6206342;28;20684;-46
2022/08/27 03:30:32;;;;;;;6.50;5.90;;;;;;;17.05;89.05;97243.31;6206157;28;20692;-47
2022/08/27 03:33:37;;;;;;;7.17;5.90;;;;;;;17.07;89.11;97235.94;6206141;28;20315;-45
2022/08/27 03:36:40;;;;;;;6.23;5.30;;;;;;;17.07;88.99;97251.13;6205850;28;20228;-45
2022/08/27 03:39:42;;;;;;;6.50;5.90;;;;;;;17.04;88.83;97248.81;6205995;28;20612;-44
2022/08/27 03:42:44;;;;;;;7.00;6.00;;;;;;;17.01;89.07;97249.16;6205269;28;20259;-45
2022/08/27 03:45:47;;;;;;;7.47;5.90;;;;;;;16.96;89.03;97250.50;6209939;28;20727;-45
2022/08/27 03:49:03;;;;;;;8.23;7.33;;;;;;;16.96;89.27;97250.50;6192543;28;20229;-44
2022/08/27 03:52:07;;;;;;;10.43;7.80;;;;;;;16.86;89.44;97251.72;6189795;28;20719;-45
2022/08/27 03:55:09;;;;;;;19.43;16.13;;;;;;;16.85;89.74;97252.72;6205950;28;20563;-44
2022/08/27 03:58:13;;;;;;;9.20;8.20;;;;;;;16.77;89.66;97253.56;6205705;28;20228;-46
2022/08/27 04:01:16;;;;;;;10.50;9.17;;;;;;;16.75;90.12;97265.41;6204295;28;20759;-45
2022/08/27 04:04:18;;;;;;;18.43;13.47;;;;;;;16.76;89.72;97261.75;6205434;28;20653;-45
2022/08/27 04:07:20;;;;;;;10.23;9.07;;;;;;;16.67;90.07;97258.25;6186187;28;20229;-45
2022/08/27 04:10:22;;;;;;;7.47;6.70;;;;;;;16.68;90.07;97262.59;6196037;28;20852;-44
2022/08/27 04:13:24;;;;;;;7.93;6.00;;;;;;;16.63;89.97;97262.28;6205312;28;20711;-45
2022/08/27 04:16:26;;;;;;;6.80;6.07;;;;;;;16.59;90.11;97260.94;6205368;28;20260;-44
2022/08/27 04:19:31;;;;;;;6.30;5.20;;;;;;;16.54;89.82;97258.78;6200483;28;20674;-44
2022/08/27 04:22:34;;;;;;;6.37;5.60;;;;;;;16.50;90.39;97257.44;6161200;28;20234;-45
2022/08/27 04:25:44;;;;;;;6.00;5.10;;;;;;;16.48;90.21;97256.78;6205255;28;20235;-44
2022/08/27 04:28:46;;;;;;;6.47;5.70;;;;;;;16.49;90.57;97255.78;6204147;28;20712;-44
2022/08/27 04:31:50;;;;;;;5.93;5.27;;;;;;;16.49;90.49;97260.28;6205494;28;20708;-45
2022/08/27 04:34:57;;;;;;;5.93;5.43;;;;;;;16.49;90.36;97260.28;6205470;28;20374;-44
2022/08/27 04:37:59;;;;;;;6.37;5.03;;;;;;;16.48;90.41;97272.78;6203731;28;20275;-45
2022/08/27 04:41:18;;;;;;;8.57;5.50;;;;;;;16.51;90.48;97276.94;6204940;28;20228;-45
2022/08/27 04:44:21;;;;;;;5.20;4.70;;;;;;;16.53;90.45;97283.75;6203807;28;20727;-46
2022/08/27 04:47:23;;;;;;;6.03;5.47;;;;;;;16.59;90.45;97291.06;6205922;28;20708;-45
2022/08/27 04:50:26;;;;;;;6.00;5.40;;;;;;;16.62;90.35;97297.94;6202826;28;20224;-44
2022/08/27 04:53:30;;;;;;;5.40;4.90;;;;;;;16.63;90.12;97299.59;6203880;28;20232;-46
2022/08/27 04:56:33;;;;;;;7.60;5.50;;;;;;;16.72;90.01;97300.41;6204731;28;20233;-48
2022/08/27 04:59:36;;;;;;;6.07;5.20;;;;;;;16.79;89.79;97306.69;6202973;28;20232;-45
2022/08/27 05:02:38;;;;;;;5.60;5.10;;;;;;;16.88;89.74;97306.50;6204482;28;20347;-46
2022/08/27 05:05:42;;;;;;;6.17;5.50;;;;;;;17.02;89.33;97304.97;6202587;28;20244;-46
2022/08/27 05:08:46;;;;;;;6.87;5.70;;;;;;;17.17;88.95;97308.56;6203411;28;20228;-46
2022/08/27 05:11:50;;;;;;;5.90;5.30;;;;;;;17.33;88.44;97308.50;6203617;28;20231;-44
2022/08/27 05:14:53;;;;;;;5.57;5.07;;;;;;;17.45;87.84;97303.59;6202803;28;20239;-45
2022/08/27 05:17:59;;;;;;;5.70;4.83;;;;;;;17.60;87.70;97301.84;6203692;28;20618;-46
2022/08/27 05:21:02;;;;;;;5.87;5.27;;;;;;;17.77;87.15;97296.44;6189593;28;20729;-44
2022/08/27 05:24:06;;;;;;;5.53;4.90;;;;;;;17.90;86.37;97296.66;6203101;28;20288;-45
2022/08/27 05:27:08;;;;;;;6.20;5.60;;;;;;;17.95;86.07;97300.47;6203294;28;20529;-45
2022/08/27 05:30:13;;;;;;;6.17;5.13;;;;;;;18.04;86.05;97298.56;6203469;28;20236;-46
2022/08/27 05:33:24;;;;;;;6.73;5.40;;;;;;;18.14;85.41;97290.31;6206873;28;20220;-47
2022/08/27 05:36:31;;;;;;;5.63;5.03;;;;;;;18.25;85.20;97300.56;6208176;28;20236;-46
2022/08/27 05:39:34;;;;;;;5.40;4.90;;;;;;;18.35;84.76;97307.31;6208387;28;20692;-45
2022/08/27 05:42:36;;;;;;;4.90;4.50;;;;;;;18.53;84.23;97311.47;6208243;28;20224;-44
2022/08/27 05:45:47;;;;;;;5.80;5.00;;;;;;;18.67;83.85;97313.34;6207376;28;20793;-44
2022/08/27 05:48:50;;;;;;;6.20;5.10;;;;;;;18.75;83.50;97314.13;6207946;28;20695;-44
2022/08/27 05:51:52;;;;;;;5.50;5.00;;;;;;;18.79;83.55;97306.56;6186577;28;20236;-45
2022/08/27 05:54:54;;;;;;;5.83;4.90;;;;;;;18.87;83.60;97310.97;6208189;28;20232;-47
2022/08/27 05:57:57;;;;;;;6.93;5.20;;;;;;;18.94;83.63;97302.06;6207249;28;20330;-44
2022/08/27 06:01:05;;;;;;;7.03;5.93;;;;;;;19.01;83.38;97308.31;6208781;28;20247;-45
2022/08/27 06:04:11;;;;;;;7.93;5.60;;;;;;;19.11;83.12;97300.84;6207603;28;20258;-44
2022/08/27 06:07:18;;;;;;;6.47;5.80;;;;;;;19.16;83.22;97300.28;6207341;28;20291;-45
2022/08/27 06:10:21;;;;;;;9.13;6.27;;;;;;;19.23;83.01;97301.19;6208001;28;20247;-45
2022/08/27 06:13:23;;;;;;;6.70;5.83;;;;;;;19.38;82.83;97306.50;6207842;28;20231;-45
2022/08/27 06:16:26;;;;;;;6.27;5.67;;;;;;;19.53;82.47;97299.31;6207326;28;20228;-44
2022/08/27 06:19:33;;;;;;;6.97;6.27;;;;;;;19.69;81.82;97301.75;6204400;28;20729;-45
2022/08/27 06:22:35;;;;;;;9.47;7.53;;;;;;;19.85;82.19;97298.88;6206684;28;20319;-44
2022/08/27 06:25:39;;;;;;;9.70;8.00;;;;;;;20.00;81.38;97295.28;6206521;28;20791;-45
2022/08/27 06:28:43;;;;;;;12.97;10.53;;;;;;;20.10;80.28;97301.97;6206043;28;20327;-46
2022/08/27 06:31:49;;;;;;;11.80;7.80;;;;;;;20.24;79.97;97293.03;6204233;28;20236;-44
2022/08/27 06:34:51;;;;;;;9.27;6.80;;;;;;;20.36;79.40;97300.59;6206257;28;20319;-44
2022/08/27 06:37:53;;;;;;;6.57;5.70;;;;;;;20.47;78.69;97302.72;6206711;28;20853;-44
2022/08/27 06:40:56;;;;;;;6.00;5.40;;;;;;;20.56;77.91;97309.63;6207449;28;20224;-44
2022/08/27 06:43:58;;;;;;;5.27;4.50;;;;;;;20.68;77.10;97309.88;6205287;28;20228;-44
2022/08/27 06:47:02;;;;;;;4.53;4.13;;;;;;;20.82;76.31;97301.75;6206467;28;20254;-44
2022/08/27 06:50:05;;;;;;;6.30;4.67;;;;;;;20.98;73.71;97298.75;6198025;28;20344;-44
2022/08/27 06:53:07;;;;;;;5.47;3.83;;;;;;;21.38;72.52;97308.88;6204206;28;20238;-46
2022/08/27 06:56:10;;;;;;;6.10;4.20;;;;;;;21.74;72.04;97306.75;6206149;28;20583;-45
2022/08/27 06:59:15;;;;;;;5.57;4.43;;;;;;;21.96;69.54;97312.78;6204578;28;20775;-47
2022/08/27 07:02:17;;;;;;;4.50;4.10;;;;;;;22.14;69.17;97309.53;6206839;28;20232;-45
2022/08/27 07:05:20;;;;;;;4.00;3.70;;;;;;;22.34;69.09;97324.66;6206369;28;20722;-45
2022/08/27 07:08:22;;;;;;;3.83;3.53;;;;;;;22.55;68.22;97323.63;6206448;28;20232;-45
2022/08/27 07:11:25;;;;;;;3.77;3.33;;;;;;;22.88;67.18;97320.91;6207283;28;20614;-45
2022/08/27 07:14:29;;;;;;;5.77;4.57;;;;;;;23.26;65.96;97318.34;6206258;28;20282;-46
2022/08/27 07:17:39;;;;;;;6.83;5.83;;;;;;;23.72;64.40;97322.78;6206223;28;20323;-45
2022/08/27 07:20:42;;;;;;;4.40;4.00;;;;;;;24.20;62.68;97321.22;6192017;28;20617;-45
2022/08/27 07:23:45;;;;;;;4.73;3.73;;;;;;;24.57;61.21;97316.00;6200126;28;20606;-46
2022/08/27 07:26:47;;;;;;;5.50;3.67;;;;;;;24.91;59.97;97322.75;6204943;28;20228;-45
2022/08/27 07:29:49;;;;;;;7.00;4.70;;;;;;;25.13;59.25;97320.50;6203468;28;20233;-44
2022/08/27 07:32:52;;;;;;;3.77;3.47;;;;;;;25.10;57.29;97331.75;6205604;28;20228;-44
2022/08/27 07:35:54;;;;;;;5.13;3.80;;;;;;;25.27;56.92;97328.22;6203828;28;20382;-45
2022/08/27 07:38:57;;;;;;;4.23;3.70;;;;;;;25.20;56.86;97322.06;6210378;28;20648;-43
2022/08/27 07:45:23;;;;;;;4.47;3.55;;;;;;;25.53;55.46;97326.28;6206346;28;21826;-44
2022/08/27 07:48:26;;;;;;;6.13;3.75;;;;;;;25.81;54.46;97331.97;6204579;28;20585;-44
2022/08/27 07:51:31;;;;;;;7.80;4.50;;;;;;;26.21;53.04;97331.44;6186208;28;20225;-45
2022/08/27 07:54:33;;;;;;;4.78;4.03;;;;;;;26.10;52.87;97333.84;6195446;28;20239;-45
2022/08/27 07:57:35;;;;;;;6.05;3.83;;;;;;;26.56;52.37;97343.19;6204679;28;20244;-46
2022/08/27 08:00:43;;;;;;;4.50;3.95;;;;;;;26.84;51.91;97342.53;6204384;28;20326;-44
2022/08/27 08:03:45;;;;;;;3.92;3.53;;;;;;;27.13;51.65;97341.63;6202601;28;20823;-46
2022/08/27 08:06:49;;;;;;;3.80;3.50;;;;;;;27.36;51.06;97342.63;6203801;28;20232;-46
2022/08/27 08:09:52;;;;;;;4.65;3.63;;;;;;;27.24;51.62;97345.38;6203895;28;20240;-43
2022/08/27 08:12:54;;;;;;;5.15;3.80;;;;;;;26.73;51.95;97337.94;6204063;28;20228;-44
2022/08/27 08:15:58;;;;;;;5.05;3.85;;;;;;;26.33;52.89;97338.56;6204396;28;20236;-45
2022/08/27 08:19:00;;;;;;;5.45;4.07;;;;;;;26.46;52.51;97337.50;6203272;28;20244;-44
2022/08/27 08:22:02;;;;;;;7.28;4.18;;;;;;;26.75;51.81;97330.41;6195498;28;20739;-44
2022/08/27 08:25:07;;;;;;;4.85;3.70;;;;;;;26.91;51.46;97337.81;6203209;28;20236;-46
2022/08/27 08:28:13;;;;;;;6.60;4.47;;;;;;;27.06;50.77;97332.75;6204102;28;20240;-46
2022/08/27 08:31:15;;;;;;;6.65;4.18;;;;;;;27.08;50.66;97329.81;6204105;28;20240;-48
2022/08/27 08:34:18;;;;;;;9.52;4.93;;;;;;;27.20;50.69;97327.94;6203938;28;20699;-44
2022/08/27 08:37:23;;;;;;;6.65;4.60;;;;;;;27.44;49.89;97328.75;6204994;28;20267;-45
2022/08/27 08:40:35;;;;;;;5.88;3.63;;;;;;;27.81;48.86;97338.22;6202989;28;20232;-50
2022/08/27 08:43:48;;;;;;;5.80;4.22;;;;;;;28.03;100.00;60274.75;6205048;28;20241;-51
2022/08/27 08:47:05;;;;;;;4.22;3.83;;;;;;;28.27;48.07;97328.25;6204325;28;20237;-49
2022/08/27 08:50:24;;;;;;;6.10;4.25;;;;;;;28.58;47.73;97333.13;6195980;28;20247;-46
2022/08/27 08:53:51;;;;;;;6.07;4.38;;;;;;;28.99;46.66;97331.94;6196529;28;20229;-46
2022/08/27 08:57:00;;;;;;;5.20;4.20;;;;;;;29.13;45.88;97339.75;6203901;28;20228;-49
2022/08/27 09:00:13;;;;;;;6.93;5.10;;;;;;;29.24;45.39;97334.22;6202859;28;20719;-46
2022/08/27 09:03:16;;;;;;;5.57;4.45;;;;;;;29.41;44.98;97334.19;6201504;28;20279;-47
2022/08/27 09:06:37;;;;;;;5.07;4.10;;;;;;;29.33;44.07;97335.41;6203165;28;20639;-48
2022/08/27 09:09:50;;;;;;;6.00;3.95;;;;;;;29.56;43.90;97328.94;6203170;28;20232;-49
2022/08/27 09:12:58;;;;;;;4.15;3.75;;;;;;;29.70;42.85;97337.56;6203527;28;20232;-48
2022/08/27 09:16:03;;;;;;;4.82;3.63;;;;;;;29.52;42.83;97332.44;6203652;28;20225;-51
2022/08/27 09:19:06;;;;;;;5.13;4.18;;;;;;;29.80;42.78;97334.94;6202557;28;20235;-48
2022/08/27 09:22:32;;;;;;;5.43;3.83;;;;;;;30.00;42.37;97335.22;6155217;28;20269;-50
2022/08/27 09:25:37;;;;;;;4.38;3.70;;;;;;;29.45;42.61;97329.06;6154117;28;20604;-48
2022/08/27 09:32:04;;;;;;;4.97;3.97;;;;;;;-144.22;100.00;60274.75;6203085;28;20577;-48
2022/08/27 09:35:10;;;;;;;5.40;3.90;;;;;;;-144.22;100.00;60274.75;6208350;28;20462;-48
2022/08/27 09:38:50;;;;;;;6.47;3.75;;;;;;;-144.22;100.00;60274.75;6202957;28;20239;-47
2022/08/27 09:42:01;;;;;;;4.20;3.80;;;;;;;30.82;100.00;60274.75;6203730;28;20599;-47
2022/08/27 09:45:14;;;;;;;5.53;3.92;;;;;;;-144.22;100.00;60274.75;6202988;28;20228;-46
2022/08/27 09:48:36;;;;;;;4.70;3.75;;;;;;;-144.22;100.00;60274.75;6203023;28;20348;-48
2022/08/27 09:51:44;;;;;;;4.22;3.92;;;;;;;31.90;100.00;60274.75;6197506;28;20244;-46
2022/08/27 09:54:47;;;;;;;5.57;4.00;;;;;;;-144.22;100.00;60274.75;6202078;28;20711;-50
2022/08/27 09:57:49;;;;;;;5.50;4.13;;;;;;;-144.22;100.00;60274.75;6203093;28;20232;-46
2022/08/27 10:01:18;;;;;;;4.55;4.10;;;;;;;-144.22;100.00;60274.75;6202890;28;20715;-46
2022/08/27 10:14:11;;;;;;;4.05;3.65;;;;;;;31.89;39.63;97317.31;4869015;28;22776;-43
2022/08/27 10:17:50;;;;;;;9.43;4.60;;;;;;;32.31;38.81;97324.53;6154833;28;20226;-47
2022/08/27 10:21:14;;;;;;;5.95;4.65;;;;;;;31.96;37.73;97317.03;6151176;28;20234;-49
2022/08/27 10:24:34;;;;;;;5.35;3.85;;;;;;;31.68;38.27;97323.78;6181631;28;20229;-50
2022/08/27 10:28:03;;;;;;;7.53;4.35;;;;;;;31.68;39.02;97320.22;6158457;28;20617;-48
2022/08/27 10:31:35;;;;;;;5.45;4.25;;;;;;;32.29;38.91;97314.97;6183241;28;20649;-48
2022/08/27 10:34:49;;;;;;;7.05;4.20;;;;;;;32.40;37.82;97319.34;6184091;28;20315;-52
2022/08/27 10:37:58;;;;;;;5.93;3.97;;;;;;;32.47;37.88;97308.97;6181972;28;20257;-50
2022/08/27 10:41:35;;;;;;;5.85;4.72;;;;;;;32.85;37.50;97299.44;6182722;28;20247;-52
2022/08/27 10:44:53;;;;;;;6.82;4.38;;;;;;;32.67;36.48;97303.50;6185365;28;20237;-50
2022/08/27 10:48:38;;;;;;;8.35;4.35;;;;;;;32.51;37.64;97302.72;6182017;28;20246;-49
2022/08/27 10:51:48;;;;;;;6.32;4.60;;;;;;;31.73;38.17;97296.53;6182140;28;20237;-48
2022/08/27 10:55:09;;;;;;;10.20;7.20;;;;;;;32.08;38.16;97292.22;6154394;28;20234;-50
2022/08/27 10:58:32;;;;;;;7.18;4.60;;;;;;;32.13;38.29;97290.34;6202128;28;20238;-46
2022/08/27 11:02:14;;;;;;;7.32;4.80;;;;;;;31.45;38.57;97289.53;6202475;28;20733;-46
2022/08/27 11:05:25;;;;;;;18.90;15.45;;;;;;;31.41;39.13;97288.44;6202836;28;20707;-49
2022/08/27 11:08:42;;;;;;;9.65;5.82;;;;;;;32.18;38.54;97281.34;6202046;28;20229;-51
2022/08/27 11:11:49;;;;;;;9.10;7.13;;;;;;;32.49;37.78;97274.81;6201462;28;20779;-46
2022/08/27 11:15:31;;;;;;;5.63;4.93;;;;;;;32.31;38.17;97275.38;6193519;28;20339;-48
2022/08/27 11:19:11;;;;;;;5.00;4.00;;;;;;;31.58;38.38;97273.75;6199580;28;20237;-49
2022/08/27 11:22:22;;;;;;;5.53;4.30;;;;;;;31.14;39.43;97271.41;6177397;28;20311;-48
2022/08/27 11:25:36;;;;;;;4.82;4.10;;;;;;;31.11;40.30;97271.91;6182142;28;20269;-51
2022/08/27 11:28:51;;;;;;;6.25;4.70;;;;;;;31.06;40.05;97272.66;6181168;28;20589;-47
2022/08/27 11:32:28;;;;;;;5.18;4.38;;;;;;;31.30;39.97;97264.94;6179924;28;20276;-49
2022/08/27 11:35:52;;;;;;;5.95;4.45;;;;;;;31.48;39.48;97258.19;6180857;28;20244;-47
2022/08/27 11:39:12;;;;;;;8.25;4.00;;;;;;;31.22;39.86;97257.25;6180721;28;20233;-52
2022/08/27 11:42:42;;;;;;;5.10;4.22;;;;;;;31.40;40.12;97264.16;6180642;28;20237;-46
2022/08/27 11:46:10;;;;;;;6.45;4.30;;;;;;;32.21;37.21;97270.72;6180111;28;20237;-44
2022/08/27 11:49:31;;;;;;;7.95;4.22;;;;;;;32.57;36.33;97265.25;6184172;28;20237;-44
2022/08/27 11:52:52;;;;;;;6.70;4.63;;;;;;;32.81;35.71;97269.09;6174260;28;20604;-45
2022/08/27 11:55:56;;;;;;;4.35;3.95;;;;;;;32.86;36.21;97273.72;6179908;28;20233;-44
2022/08/27 11:59:32;;;;;;;6.57;4.63;;;;;;;32.76;36.23;97271.00;6179549;28;20791;-44
2022/08/27 12:02:35;;;;;;;5.03;3.83;;;;;;;32.39;37.74;97290.41;6177918;28;20240;-45
2022/08/27 12:05:44;;;;;;;5.57;4.22;;;;;;;32.30;37.80;97284.66;6177090;28;20240;-44
2022/08/27 12:08:47;;;;;;;6.32;4.20;;;;;;;31.92;38.61;97287.84;6176966;28;20748;-47
2022/08/27 12:12:07;;;;;;;6.72;4.50;;;;;;;31.63;39.53;97287.47;6176704;28;20233;-46
2022/08/27 13:14:40;;;;;;;6.10;4.85;;;;;;;31.79;40.41;97227.19;5200241;28;20645;-43
2022/08/27 13:17:45;;;;;;;6.50;4.18;;;;;;;31.85;40.04;97226.09;6187802;28;20243;-44
2022/08/27 13:20:49;;;;;;;6.05;5.45;;;;;;;31.54;39.84;97233.38;6190101;28;20287;-43
2022/08/27 13:23:58;;;;;;;5.68;4.80;;;;;;;30.96;40.88;97234.44;6204407;28;20358;-50
2022/08/27 13:27:03;;;;;;;5.25;4.35;;;;;;;30.53;40.93;97232.81;6203693;28;20236;-44
2022/08/27 13:30:09;;;;;;;5.30;4.80;;;;;;;30.31;42.89;97234.78;6203134;28;20221;-45
2022/08/27 13:33:23;;;;;;;5.65;4.00;;;;;;;30.05;43.58;97234.53;6204373;28;20208;-48
2022/08/27 13:36:33;;;;;;;4.80;4.07;;;;;;;29.78;46.15;97236.44;6201331;28;20564;-45
2022/08/27 13:39:38;;;;;;;4.50;4.10;;;;;;;29.29;47.71;97243.72;6204181;28;20220;-44
2022/08/27 13:42:43;;;;;;;4.95;4.38;;;;;;;29.29;47.88;97233.66;6203083;28;20359;-50
2022/08/27 13:45:50;;;;;;;4.85;4.07;;;;;;;29.45;48.02;97228.47;6202981;28;20235;-45
2022/08/27 13:48:57;;;;;;;5.85;4.32;;;;;;;29.67;47.42;97234.69;6203350;28;20233;-45
2022/08/27 13:52:07;;;;;;;5.20;4.10;;;;;;;29.79;47.01;97235.34;6189480;28;20245;-48
2022/08/27 13:55:15;;;;;;;6.68;4.18;;;;;;;29.96;46.50;97238.00;6207697;28;20239;-45
2022/08/27 13:58:30;;;;;;;4.85;4.10;;;;;;;29.94;46.93;97234.69;6168456;28;20232;-49
2022/08/27 14:01:33;;;;;;;5.22;4.35;;;;;;;29.59;47.84;97249.56;6211125;28;20228;-45
2022/08/27 14:04:45;;;;;;;6.78;3.83;;;;;;;29.37;49.11;97246.03;6208916;28;20426;-44
2022/08/27 14:07:53;;;;;;;4.88;4.05;;;;;;;29.47;48.23;97240.72;6206727;28;20244;-45
2022/08/27 14:11:06;;;;;;;3.70;3.40;;;;;;;29.41;48.65;97241.72;6208342;28;20244;-45
2022/08/27 14:14:09;;;;;;;4.47;4.03;;;;;;;29.23;49.77;97236.59;6195098;28;20228;-43
2022/08/27 14:17:24;;;;;;;4.85;4.13;;;;;;;29.20;50.28;97228.94;6207494;28;20240;-48
2022/08/27 14:20:31;;;;;;;5.57;3.83;;;;;;;29.23;49.37;97228.44;6193176;28;20229;-45
2022/08/27 14:23:33;;;;;;;5.50;4.07;;;;;;;29.32;49.65;97229.63;6195006;28;20258;-44
2022/08/27 14:26:35;;;;;;;5.25;4.05;;;;;;;29.35;49.28;97226.38;6207329;28;20228;-45
2022/08/27 14:29:38;;;;;;;4.65;4.25;;;;;;;29.43;50.06;97222.44;6206500;28;20259;-46
2022/08/27 14:32:40;;;;;;;8.20;4.63;;;;;;;29.23;47.10;97220.28;6207061;28;20666;-44
2022/08/27 14:35:43;;;;;;;6.18;4.30;;;;;;;29.26;49.10;97217.03;6207025;28;20225;-45
2022/08/27 14:38:47;;;;;;;4.93;4.32;;;;;;;29.16;47.95;97209.56;6205140;28;20237;-45
2022/08/27 14:41:50;;;;;;;4.78;4.30;;;;;;;29.65;47.08;97198.75;6206718;28;20681;-44
2022/08/27 14:44:52;;;;;;;4.95;4.10;;;;;;;29.91;46.56;97200.66;6209230;28;20233;-47
2022/08/27 14:47:55;;;;;;;7.93;4.55;;;;;;;29.96;45.59;97208.88;6206982;28;20616;-46
2022/08/27 14:51:12;;;;;;;5.55;3.95;;;;;;;32.09;40.44;97204.59;6194336;28;20310;-45
2022/08/27 14:54:14;;;;;;;5.90;4.15;;;;;;;34.53;36.58;97209.16;6206297;28;20251;-44
2022/08/27 14:57:18;;;;;;;6.68;4.38;;;;;;;35.89;32.68;97217.78;6204945;28;20399;-47
2022/08/27 15:00:21;;;;;;;6.88;4.18;;;;;;;37.14;31.04;97218.69;6206629;28;20586;-46
2022/08/27 15:03:25;;;;;;;5.35;3.83;;;;;;;38.84;27.61;97218.16;6206144;28;20233;-46
2022/08/27 15:06:30;;;;;;;6.97;4.53;;;;;;;39.34;26.33;97218.72;6205111;28;20739;-48
2022/08/27 15:09:34;;;;;;;5.55;4.00;;;;;;;39.91;26.34;97222.34;6206501;28;20687;-45
2022/08/27 15:12:38;;;;;;;4.40;3.92;;;;;;;39.70;26.33;97218.53;6204561;28;20237;-46
2022/08/27 15:15:43;;;;;;;6.93;3.88;;;;;;;38.58;27.30;97210.56;6203425;28;20267;-49
2022/08/27 15:18:49;;;;;;;4.32;3.90;;;;;;;37.30;28.80;97206.28;6204583;28;20289;-48
2022/08/27 15:22:15;;;;;;;4.38;3.97;;;;;;;35.84;30.72;97209.59;6180598;28;20240;-49
2022/08/27 15:25:40;;;;;;;4.50;4.10;;;;;;;33.76;34.98;97199.84;6196457;28;20224;-48
2022/08/27 15:28:55;;;;;;;4.43;3.88;;;;;;;32.38;38.14;97198.59;6202361;28;20310;-49
2022/08/27 15:32:38;;;;;;;5.50;4.40;;;;;;;30.92;42.80;97202.53;6207052;28;20248;-47
2022/08/27 15:35:43;;;;;;;6.68;3.83;;;;;;;30.20;44.55;97209.38;6205137;28;20237;-48
2022/08/27 15:38:45;;;;;;;9.23;4.35;;;;;;;29.63;46.27;97212.63;6194517;28;20607;-50
2022/08/27 15:41:48;;;;;;;5.57;4.07;;;;;;;29.23;46.46;97212.94;6188971;28;20243;-48
2022/08/27 15:45:08;;;;;;;6.80;4.63;;;;;;;28.84;48.76;97208.63;6198225;28;20229;-51
2022/08/27 15:48:11;;;;;;;4.95;4.10;;;;;;;28.49;49.91;97209.72;6183783;28;20710;-48
2022/08/27 15:51:14;;;;;;;8.90;4.43;;;;;;;27.92;51.94;97209.84;6186847;28;20327;-47
2022/08/27 15:54:16;;;;;;;5.88;4.45;;;;;;;27.51;53.78;97212.84;6206215;28;20216;-47
2022/08/27 15:57:20;;;;;;;8.95;4.72;;;;;;;27.33;54.43;97222.00;6204331;28;20247;-48